Time;durP1;ratioP1;P1;durP2;ratioP2;P2;SDS_P1;SDS_P2;PMS_P1;PMS_P2;Temp;Humidity;BMP_temperature;BMP_pressure;BME280_temperature;BME280_humidity;BME280_pressure;Samples;Min_cycle;Max_cycle;Signal;HPM_P1;HPM_P2
2022/09/13 00:01:26;;;;;;;;;;;;;;;;;;4954435;28;19922;-72
2022/09/13 00:03:51;;;;;;;;;;;;;;;;;;4953695;28;19915;-73
2022/09/13 00:06:17;;;;;;;;;;;;;;;;;;4954400;28;20444;-73
2022/09/13 00:08:42;;;;;;;;;;;;;;;;;;4953067;28;20392;-73
2022/09/13 00:11:08;;;;;;;;;;;;;;;;;;4954229;28;19910;-73
2022/09/13 00:13:33;;;;;;;;;;;;;;;;;;4952942;29;19918;-74
2022/09/13 00:16:01;;;;;;;;;;;;;;;;;;4954221;28;19915;-73
2022/09/13 00:18:26;;;;;;;;;;;;;;;;;;4952929;28;19966;-73
2022/09/13 00:20:52;;;;;;;;;;;;;;;;;;4953536;28;19918;-74
2022/09/13 00:23:17;;;;;;;;;;;;;;;;;;4953916;28;19941;-73
2022/09/13 00:25:43;;;;;;;;;;;;;;;;;;4954138;28;19914;-75
2022/09/13 00:28:08;;;;;;;;;;;;;;;;;;4952728;28;19969;-72
2022/09/13 00:30:34;;;;;;;;;;;;;;;;;;4954064;28;20397;-75
2022/09/13 00:33:03;;;;;;;;;;;;;;;;;;4952692;28;20070;-73
2022/09/13 00:35:28;;;;;;;;;;;;;;;;;;4952830;28;20424;-73
2022/09/13 00:37:53;;;;;;;;;;;;;;;;;;4955819;28;19915;-72
2022/09/13 00:40:19;;;;;;;;;;;;;;;;;;4957905;28;19918;-73
2022/09/13 00:42:44;;;;;;;;;;;;;;;;;;4957718;28;19937;-72
2022/09/13 00:45:09;;;;;;;;;;;;;;;;;;4957858;28;20522;-74
2022/09/13 00:47:35;;;;;;;;;;;;;;;;;;4957772;28;19915;-74
2022/09/13 00:50:00;;;;;;;;;;;;;;;;;;4956656;28;19965;-74
2022/09/13 00:52:26;;;;;;;;;;;;;;;;;;4956270;28;20420;-72
2022/09/13 00:54:51;;;;;;;;;;;;;;;;;;4956483;28;19914;-74
2022/09/13 00:57:16;;;;;;;;;;;;;;;;;;4955710;28;19918;-73
2022/09/13 00:59:42;;;;;;;;;;;;;;;;;;4956474;28;19969;-72
2022/09/13 01:02:08;;;;;;;;;;;;;;;;;;4956327;29;19915;-74
2022/09/13 01:04:33;;;;;;;;;;;;;;;;;;4957494;28;20297;-73
2022/09/13 01:06:58;;;;;;;;;;;;;;;;;;4956108;28;20385;-74
2022/09/13 01:09:23;;;;;;;;;;;;;;;;;;4957448;28;20262;-74
2022/09/13 01:11:49;;;;;;;;;;;;;;;;;;4957313;28;19918;-73
2022/09/13 01:14:14;;;;;;;;;;;;;;;;;;4956567;28;19921;-74
2022/09/13 01:16:40;;;;;;;;;;;;;;;;;;4956168;28;20009;-74
2022/09/13 01:19:05;;;;;;;;;;;;;;;;;;4955986;28;20297;-73
2022/09/13 01:21:30;;;;;;;;;;;;;;;;;;4956021;28;19925;-73
2022/09/13 01:23:56;;;;;;;;;;;;;;;;;;4955774;29;19936;-73
2022/09/13 01:26:21;;;;;;;;;;;;;;;;;;4955971;29;20300;-74
2022/09/13 01:28:47;;;;;;;;;;;;;;;;;;4992547;23;19925;-73
2022/09/13 01:31:12;;;;;;;;;;;;;;;;;;4995854;28;19914;-72
2022/09/13 01:33:38;;;;;;;;;;;;;;;;;;4979715;28;19921;-72
2022/09/13 01:36:03;;;;;;;;;;;;;;;;;;4979543;28;19914;-74
2022/09/13 01:38:29;;;;;;;;;;;;;;;;;;4978949;28;19949;-72
2022/09/13 01:40:56;;;;;;;;;;;;;;;;;;4995395;28;19983;-75
2022/09/13 01:43:22;;;;;;;;;;;;;;;;;;4994772;28;20008;-71
2022/09/13 01:45:47;;;;;;;;;;;;;;;;;;4977801;28;20000;-73
2022/09/13 01:48:13;;;;;;;;;;;;;;;;;;4978098;28;19914;-73
2022/09/13 01:50:38;;;;;;;;;;;;;;;;;;4978618;28;19913;-72
2022/09/13 01:53:04;;;;;;;;;;;;;;;;;;4994408;28;19917;-72
2022/09/13 01:55:29;;;;;;;;;;;;;;;;;;4995895;28;19913;-73
2022/09/13 01:57:55;;;;;;;;;;;;;;;;;;4994945;28;20008;-73
2022/09/13 02:00:20;;;;;;;;;;;;;;;;;;4979382;28;20004;-73
2022/09/13 02:02:46;;;;;;;;;;;;;;;;;;4993910;28;19914;-73
2022/09/13 02:05:11;;;;;;;;;;;;;;;;;;4995271;28;19914;-72
2022/09/13 02:07:37;;;;;;;;;;;;;;;;;;4996126;28;20448;-74
2022/09/13 02:10:02;;;;;;;;;;;;;;;;;;4995228;28;19921;-72
2022/09/13 02:12:28;;;;;;;;;;;;;;;;;;4996106;28;20016;-73
2022/09/13 02:14:53;;;;;;;;;;;;;;;;;;4995735;28;19914;-73
2022/09/13 02:17:19;;;;;;;;;;;;;;;;;;4996225;28;20393;-74
2022/09/13 02:19:44;;;;;;;;;;;;;;;;;;4962567;28;19917;-72
2022/09/13 02:22:09;;;;;;;;;;;;;;;;;;4979484;28;19921;-72
2022/09/13 02:24:35;;;;;;;;;;;;;;;;;;4996127;28;20277;-74
2022/09/13 02:27:01;;;;;;;;;;;;;;;;;;4962438;28;20281;-73
2022/09/13 02:29:27;;;;;;;;;;;;;;;;;;4995039;28;19921;-73
2022/09/13 02:31:53;;;;;;;;;;;;;;;;;;4995009;28;19917;-75
2022/09/13 02:34:18;;;;;;;;;;;;;;;;;;4961796;28;19941;-75
2022/09/13 02:36:44;;;;;;;;;;;;;;;;;;4979539;28;19945;-74
2022/09/13 02:39:09;;;;;;;;;;;;;;;;;;4974918;28;20273;-72
2022/09/13 02:41:35;;;;;;;;;;;;;;;;;;4975949;28;20356;-72
2022/09/13 02:44:00;;;;;;;;;;;;;;;;;;4975556;28;19959;-73
2022/09/13 02:46:26;;;;;;;;;;;;;;;;;;4975472;28;20045;-73
2022/09/13 02:48:51;;;;;;;;;;;;;;;;;;4975331;28;19915;-73
2022/09/13 02:51:16;;;;;;;;;;;;;;;;;;4975000;28;19922;-72
2022/09/13 02:53:42;;;;;;;;;;;;;;;;;;4974687;28;19920;-75
2022/09/13 02:56:08;;;;;;;;;;;;;;;;;;4990159;28;19945;-73
2022/09/13 02:58:34;;;;;;;;;;;;;;;;;;4974108;28;19914;-72
2022/09/13 03:00:59;;;;;;;;;;;;;;;;;;4975560;28;19914;-72
2022/09/13 03:03:25;;;;;;;;;;;;;;;;;;4990058;28;19964;-72
2022/09/13 03:05:50;;;;;;;;;;;;;;;;;;4974441;28;19976;-73
2022/09/13 03:08:16;;;;;;;;;;;;;;;;;;4974328;28;19921;-74
2022/09/13 03:10:41;;;;;;;;;;;;;;;;;;4989888;28;19957;-74
2022/09/13 03:13:07;;;;;;;;;;;;;;;;;;4974883;28;19922;-73
2022/09/13 03:15:32;;;;;;;;;;;;;;;;;;4973744;28;19937;-74
2022/09/13 03:17:58;;;;;;;;;;;;;;;;;;4973668;28;20016;-73
2022/09/13 03:20:23;;;;;;;;;;;;;;;;;;4973490;28;19914;-72
2022/09/13 03:22:49;;;;;;;;;;;;;;;;;;4974420;28;19952;-73
2022/09/13 03:25:14;;;;;;;;;;;;;;;;;;4973450;28;19958;-73
2022/09/13 03:27:39;;;;;;;;;;;;;;;;;;4974187;28;19914;-73
2022/09/13 03:30:05;;;;;;;;;;;;;;;;;;4974469;28;20404;-71
2022/09/13 03:32:30;;;;;;;;;;;;;;;;;;4974200;28;19968;-74
2022/09/13 03:34:56;;;;;;;;;;;;;;;;;;4973438;28;20381;-72
2022/09/13 03:37:21;;;;;;;;;;;;;;;;;;4989242;28;19936;-72
2022/09/13 03:39:47;;;;;;;;;;;;;;;;;;4974472;28;19946;-73
2022/09/13 03:42:12;;;;;;;;;;;;;;;;;;4973015;28;20353;-73
2022/09/13 03:44:37;;;;;;;;;;;;;;;;;;4988547;28;19925;-72
2022/09/13 03:47:03;;;;;;;;;;;;;;;;;;4989307;28;19918;-73
2022/09/13 03:49:29;;;;;;;;;;;;;;;;;;4974221;28;19937;-74
2022/09/13 03:51:54;;;;;;;;;;;;;;;;;;4973061;28;20289;-73
2022/09/13 03:54:20;;;;;;;;;;;;;;;;;;4972913;28;19933;-72
2022/09/13 03:56:45;;;;;;;;;;;;;;;;;;4972851;28;20386;-72
2022/09/13 03:59:11;;;;;;;;;;;;;;;;;;4987959;28;19914;-73
2022/09/13 04:01:36;;;;;;;;;;;;;;;;;;4956851;28;20325;-73
2022/09/13 04:04:02;;;;;;;;;;;;;;;;;;4973864;28;19914;-73
2022/09/13 04:06:27;;;;;;;;;;;;;;;;;;4973264;28;19965;-73
2022/09/13 04:08:52;;;;;;;;;;;;;;;;;;4972768;28;20300;-72
2022/09/13 04:11:20;;;;;;;;;;;;;;;;;;4973716;28;20372;-72
2022/09/13 04:13:45;;;;;;;;;;;;;;;;;;4988898;28;19920;-73
2022/09/13 04:16:11;;;;;;;;;;;;;;;;;;4993102;28;20299;-72
2022/09/13 04:18:36;;;;;;;;;;;;;;;;;;4993158;28;20255;-72
2022/09/13 04:21:02;;;;;;;;;;;;;;;;;;4976164;28;19913;-72
2022/09/13 04:23:27;;;;;;;;;;;;;;;;;;4991928;28;20008;-75
2022/09/13 04:25:53;;;;;;;;;;;;;;;;;;4993473;28;20304;-72
2022/09/13 04:28:18;;;;;;;;;;;;;;;;;;4992017;28;19917;-73
2022/09/13 04:30:44;;;;;;;;;;;;;;;;;;4991111;28;20036;-72
2022/09/13 04:33:09;;;;;;;;;;;;;;;;;;4991625;28;19918;-71
2022/09/13 04:35:35;;;;;;;;;;;;;;;;;;4993210;28;19920;-73
2022/09/13 04:38:00;;;;;;;;;;;;;;;;;;4992143;28;20324;-71
2022/09/13 04:40:25;;;;;;;;;;;;;;;;;;4992085;28;19914;-74
2022/09/13 04:42:51;;;;;;;;;;;;;;;;;;4994480;28;19917;-71
2022/09/13 04:45:16;;;;;;;;;;;;;;;;;;4994547;28;19977;-75
2022/09/13 04:47:42;;;;;;;;;;;;;;;;;;4997317;28;20356;-72
2022/09/13 04:50:10;;;;;;;;;;;;;;;;;;4996995;28;19914;-77
2022/09/13 04:52:36;;;;;;;;;;;;;;;;;;4978524;28;19918;-74
2022/09/13 04:55:01;;;;;;;;;;;;;;;;;;4993595;28;19921;-73
2022/09/13 04:57:27;;;;;;;;;;;;;;;;;;4993636;28;19925;-73
2022/09/13 04:59:52;;;;;;;;;;;;;;;;;;4993487;28;19957;-74
2022/09/13 05:02:18;;;;;;;;;;;;;;;;;;4975549;28;19918;-72
2022/09/13 05:04:43;;;;;;;;;;;;;;;;;;4992054;28;19914;-72
2022/09/13 05:07:08;;;;;;;;;;;;;;;;;;4991631;28;19921;-73
2022/09/13 05:09:34;;;;;;;;;;;;;;;;;;4991887;28;19914;-73
2022/09/13 05:11:59;;;;;;;;;;;;;;;;;;4993079;28;19917;-73
2022/09/13 05:14:25;;;;;;;;;;;;;;;;;;4992553;28;19961;-72
2022/09/13 05:16:50;;;;;;;;;;;;;;;;;;4976623;28;19917;-72
2022/09/13 05:19:16;;;;;;;;;;;;;;;;;;4975697;28;20274;-72
2022/09/13 05:21:41;;;;;;;;;;;;;;;;;;4992295;28;19929;-73
2022/09/13 05:24:06;;;;;;;;;;;;;;;;;;4994606;28;19972;-72
2022/09/13 05:26:35;;;;;;;;;;;;;;;;;;4996073;28;19941;-75
2022/09/13 05:29:00;;;;;;;;;;;;;;;;;;4963536;28;19918;-73
2022/09/13 05:31:27;;;;;;;;;;;;;;;;;;4995607;28;19972;-74
2022/09/13 05:33:52;;;;;;;;;;;;;;;;;;4997238;28;19945;-72
2022/09/13 05:36:18;;;;;;;;;;;;;;;;;;4996041;28;19965;-72
2022/09/13 05:38:43;;;;;;;;;;;;;;;;;;4996630;28;19921;-72
2022/09/13 05:41:09;;;;;;;;;;;;;;;;;;4963590;28;19913;-73
2022/09/13 05:43:34;;;;;;;;;;;;;;;;;;4995741;28;19959;-71
2022/09/13 05:46:00;;;;;;;;;;;;;;;;;;4979854;28;20012;-75
2022/09/13 05:48:25;;;;;;;;;;;;;;;;;;4979843;28;20292;-73
2022/09/13 05:50:51;;;;;;;;;;;;;;;;;;4963443;28;19969;-73
2022/09/13 05:53:16;;;;;;;;;;;;;;;;;;4995903;28;19929;-72
2022/09/13 05:55:42;;;;;;;;;;;;;;;;;;4995388;28;20041;-73
2022/09/13 05:58:07;;;;;;;;;;;;;;;;;;4995247;28;20328;-74
2022/09/13 06:00:33;;;;;;;;;;;;;;;;;;4995176;28;19914;-72
2022/09/13 06:02:59;;;;;;;;;;;;;;;;;;4996223;28;20388;-72
2022/09/13 06:05:24;;;;;;;;;;;;;;;;;;4997140;28;19910;-73
2022/09/13 06:07:50;;;;;;;;;;;;;;;;;;4980720;28;19959;-74
2022/09/13 06:10:16;;;;;;;;;;;;;;;;;;4996762;28;19945;-71
2022/09/13 06:12:42;;;;;;;;;;;;;;;;;;4996044;28;19917;-73
2022/09/13 06:15:08;;;;;;;;;;;;;;;;;;4979675;28;20388;-75
2022/09/13 06:17:34;;;;;;;;;;;;;;;;;;4995854;28;19993;-73
2022/09/13 06:19:59;;;;;;;;;;;;;;;;;;4995451;28;20008;-73
2022/09/13 06:22:24;;;;;;;;;;;;;;;;;;4994819;28;19921;-73
2022/09/13 06:24:50;;;;;;;;;;;;;;;;;;4995108;28;19921;-72
2022/09/13 06:27:15;;;;;;;;;;;;;;;;;;4994093;28;20393;-72
2022/09/13 06:29:41;;;;;;;;;;;;;;;;;;4994662;28;20266;-73
2022/09/13 06:32:06;;;;;;;;;;;;;;;;;;4995444;28;19922;-73
2022/09/13 06:34:32;;;;;;;;;;;;;;;;;;4995209;28;19920;-72
2022/09/13 06:36:58;;;;;;;;;;;;;;;;;;4994153;28;19913;-72
2022/09/13 06:39:23;;;;;;;;;;;;;;;;;;4995010;28;20452;-71
2022/09/13 06:41:48;;;;;;;;;;;;;;;;;;4994172;28;20388;-72
2022/09/13 06:44:14;;;;;;;;;;;;;;;;;;4993848;28;19922;-72
2022/09/13 06:46:39;;;;;;;;;;;;;;;;;;4977335;28;19913;-73
2022/09/13 06:49:05;;;;;;;;;;;;;;;;;;4977571;28;19914;-75
2022/09/13 06:51:31;;;;;;;;;;;;;;;;;;4993587;28;19921;-73
2022/09/13 06:53:56;;;;;;;;;;;;;;;;;;4978322;28;19914;-74
2022/09/13 06:56:22;;;;;;;;;;;;;;;;;;4997743;28;20365;-76
2022/09/13 06:58:47;;;;;;;;;;;;;;;;;;4984189;28;20280;-75
2022/09/13 07:01:13;;;;;;;;;;;;;;;;;;4981059;28;19914;-76
2022/09/13 07:03:38;;;;;;;;;;;;;;;;;;4996533;28;19953;-76
2022/09/13 07:06:04;;;;;;;;;;;;;;;;;;4981214;28;20335;-76
2022/09/13 07:08:29;;;;;;;;;;;;;;;;;;4962060;28;20340;-75
2022/09/13 07:10:55;;;;;;;;;;;;;;;;;;4979933;28;19921;-78
2022/09/13 07:13:21;;;;;;;;;;;;;;;;;;4979588;28;19989;-75
2022/09/13 07:15:46;;;;;;;;;;;;;;;;;;4981018;28;19940;-75
2022/09/13 07:18:12;;;;;;;;;;;;;;;;;;4980309;28;19920;-76
2022/09/13 07:20:38;;;;;;;;;;;;;;;;;;4976486;28;20301;-76
2022/09/13 07:23:03;;;;;;;;;;;;;;;;;;4973783;28;20334;-74
2022/09/13 07:25:29;;;;;;;;;;;;;;;;;;4974496;28;20336;-74
2022/09/13 07:27:55;;;;;;;;;;;;;;;;;;5001927;23;19898;-76
2022/09/13 07:30:20;;;;;;;;;;;;;;;;;;4992136;28;19945;-78
2022/09/13 07:32:45;;;;;;;;;;;;;;;;;;4971968;28;20317;-77
2022/09/13 07:35:11;;;;;;;;;;;;;;;;;;4972660;28;20384;-76
2022/09/13 07:37:36;;;;;;;;;;;;;;;;;;4973226;28;19914;-76
2022/09/13 07:40:03;;;;;;;;;;;;;;;;;;4958021;28;19937;-77
2022/09/13 07:42:28;;;;;;;;;;;;;;;;;;4989433;28;20381;-76
2022/09/13 07:44:53;;;;;;;;;;;;;;;;;;4972295;28;20102;-76
2022/09/13 07:47:19;;;;;;;;;;;;;;;;;;4975935;28;19921;-76
2022/09/13 07:49:45;;;;;;;;;;;;;;;;;;4992680;28;19925;-78
2022/09/13 07:52:10;;;;;;;;;;;;;;;;;;4991446;28;19921;-78
2022/09/13 07:54:37;;;;;;;;;;;;;;;;;;4992027;28;20395;-77
2022/09/13 07:57:05;;;;;;;;;;;;;;;;;;4988182;28;20000;-78
2022/09/13 07:59:30;;;;;;;;;;;;;;;;;;4990970;28;20292;-78
2022/09/13 08:01:56;;;;;;;;;;;;;;;;;;4991212;28;19921;-79
2022/09/13 08:04:21;;;;;;;;;;;;;;;;;;4991093;28;20341;-78
2022/09/13 08:06:46;;;;;;;;;;;;;;;;;;4992961;28;20373;-78
2022/09/13 08:09:12;;;;;;;;;;;;;;;;;;4992097;28;20412;-77
2022/09/13 08:11:37;;;;;;;;;;;;;;;;;;4993068;28;19920;-78
2022/09/13 08:14:03;;;;;;;;;;;;;;;;;;4992521;28;20427;-77
2022/09/13 08:16:28;;;;;;;;;;;;;;;;;;4993033;28;19920;-77
2022/09/13 08:18:54;;;;;;;;;;;;;;;;;;4992294;28;20384;-85
2022/09/13 08:21:19;;;;;;;;;;;;;;;;;;4976301;28;20578;-81
2022/09/13 08:23:45;;;;;;;;;;;;;;;;;;4972492;28;20397;-79
2022/09/13 08:26:10;;;;;;;;;;;;;;;;;;4992247;28;19918;-79
2022/09/13 08:28:35;;;;;;;;;;;;;;;;;;4992839;28;20278;-82
2022/09/13 08:31:01;;;;;;;;;;;;;;;;;;4985700;28;19914;-76
2022/09/13 08:33:26;;;;;;;;;;;;;;;;;;4991163;28;20403;-78
2022/09/13 08:35:51;;;;;;;;;;;;;;;;;;4992978;28;20270;-77
2022/09/13 08:38:17;;;;;;;;;;;;;;;;;;4993047;28;20011;-78
2022/09/13 08:40:42;;;;;;;;;;;;;;;;;;4991624;28;19914;-77
2022/09/13 08:43:08;;;;;;;;;;;;;;;;;;4989329;28;19937;-76
2022/09/13 08:45:33;;;;;;;;;;;;;;;;;;4991662;28;19914;-77
2022/09/13 08:47:58;;;;;;;;;;;;;;;;;;4987026;28;20336;-77
2022/09/13 08:50:24;;;;;;;;;;;;;;;;;;4991264;28;19992;-77
2022/09/13 08:52:49;;;;;;;;;;;;;;;;;;4989231;28;19926;-76
2022/09/13 08:55:14;;;;;;;;;;;;;;;;;;4990773;28;19969;-77
2022/09/13 08:57:40;;;;;;;;;;;;;;;;;;4992918;28;20368;-79
2022/09/13 09:00:06;;;;;;;;;;;;;;;;;;4979121;28;20373;-78
2022/09/13 09:02:32;;;;;;;;;;;;;;;;;;4996249;28;19914;-80
2022/09/13 09:04:58;;;;;;;;;;;;;;;;;;4995280;28;20440;-78
2022/09/13 09:07:23;;;;;;;;;;;;;;;;;;4996775;28;19910;-76
2022/09/13 09:09:49;;;;;;;;;;;;;;;;;;4994646;28;19914;-77
2022/09/13 09:12:14;;;;;;;;;;;;;;;;;;4990403;28;20296;-78
2022/09/13 09:14:39;;;;;;;;;;;;;;;;;;4996145;28;20079;-78
2022/09/13 09:17:05;;;;;;;;;;;;;;;;;;4995994;28;20403;-78
2022/09/13 09:19:33;;;;;;;;;;;;;;;;;;4996106;28;19918;-76
2022/09/13 09:21:58;;;;;;;;;;;;;;;;;;4994817;28;19957;-78
2022/09/13 09:24:24;;;;;;;;;;;;;;;;;;4995738;28;19965;-79
2022/09/13 09:26:49;;;;;;;;;;;;;;;;;;4978344;28;20357;-77
2022/09/13 09:29:14;;;;;;;;;;;;;;;;;;4993410;28;19933;-77
2022/09/13 09:31:40;;;;;;;;;;;;;;;;;;4995092;28;20336;-77
2022/09/13 09:34:06;;;;;;;;;;;;;;;;;;4994922;28;19968;-77
2022/09/13 09:36:31;;;;;;;;;;;;;;;;;;4993893;28;19961;-76
2022/09/13 09:38:56;;;;;;;;;;;;;;;;;;4995106;28;20346;-77
2022/09/13 09:41:22;;;;;;;;;;;;;;;;;;4994208;28;19920;-76
2022/09/13 09:43:47;;;;;;;;;;;;;;;;;;4995170;28;20296;-77
2022/09/13 09:46:14;;;;;;;;;;;;;;;;;;4995133;28;19916;-83
2022/09/13 09:48:39;;;;;;;;;;;;;;;;;;4993765;28;19914;-84
2022/09/13 09:51:05;;;;;;;;;;;;;;;;;;4978192;28;20408;-83
2022/09/13 09:53:30;;;;;;;;;;;;;;;;;;4977573;28;19921;-83
2022/09/13 09:55:55;;;;;;;;;;;;;;;;;;4995574;28;20269;-84
2022/09/13 09:58:22;;;;;;;;;;;;;;;;;;4994174;28;19914;-82
2022/09/13 10:00:47;;;;;;;;;;;;;;;;;;4978556;28;20320;-81
2022/09/13 10:03:13;;;;;;;;;;;;;;;;;;4996109;28;20388;-80
2022/09/13 10:05:39;;;;;;;;;;;;;;;;;;4994269;28;20376;-79
2022/09/13 10:08:04;;;;;;;;;;;;;;;;;;4995729;28;19914;-81
2022/09/13 10:10:30;;;;;;;;;;;;;;;;;;4995486;28;20368;-77
2022/09/13 10:12:55;;;;;;;;;;;;;;;;;;4994884;28;20016;-75
2022/09/13 10:15:21;;;;;;;;;;;;;;;;;;4994992;28;20005;-76
2022/09/13 10:17:46;;;;;;;;;;;;;;;;;;4994750;28;20343;-76
2022/09/13 10:20:11;;;;;;;;;;;;;;;;;;4994719;28;19921;-74
2022/09/13 10:22:37;;;;;;;;;;;;;;;;;;4993520;28;19968;-77
2022/09/13 10:25:02;;;;;;;;;;;;;;;;;;4994354;28;20300;-76
2022/09/13 10:27:27;;;;;;;;;;;;;;;;;;4995242;28;19945;-77
2022/09/13 10:29:54;;;;;;;;;;;;;;;;;;4994493;28;20380;-78
2022/09/13 10:32:19;;;;;;;;;;;;;;;;;;4993558;28;19969;-77
2022/09/13 10:34:45;;;;;;;;;;;;;;;;;;4977352;28;19944;-79
2022/09/13 10:37:10;;;;;;;;;;;;;;;;;;4993833;28;20000;-79
2022/09/13 10:39:35;;;;;;;;;;;;;;;;;;4994667;28;19921;-78
2022/09/13 10:42:01;;;;;;;;;;;;;;;;;;4994220;28;19913;-78
2022/09/13 10:44:26;;;;;;;;;;;;;;;;;;4994458;28;19917;-76
2022/09/13 10:46:51;;;;;;;;;;;;;;;;;;5003226;28;19932;-83
2022/09/13 10:49:17;;;;;;;;;;;;;;;;;;5008466;28;19922;-81
2022/09/13 10:51:43;;;;;;;;;;;;;;;;;;4993891;28;20281;-80
2022/09/13 10:54:09;;;;;;;;;;;;;;;;;;4993988;28;19957;-79
2022/09/13 10:56:34;;;;;;;;;;;;;;;;;;4993232;28;19914;-78
2022/09/13 10:59:00;;;;;;;;;;;;;;;;;;4996154;28;19929;-78
2022/09/13 11:01:25;;;;;;;;;;;;;;;;;;4995159;28;19920;-77
2022/09/13 11:03:51;;;;;;;;;;;;;;;;;;4991944;28;19973;-85
2022/09/13 11:06:19;;;;;;;;;;;;;;;;;;4997928;28;19964;-82
2022/09/13 11:08:45;;;;;;;;;;;;;;;;;;4977829;28;19914;-80
2022/09/13 11:11:10;;;;;;;;;;;;;;;;;;4992275;28;20027;-80
2022/09/13 11:13:36;;;;;;;;;;;;;;;;;;4993396;28;19918;-76
2022/09/13 11:16:02;;;;;;;;;;;;;;;;;;4993524;28;19960;-76
2022/09/13 11:18:27;;;;;;;;;;;;;;;;;;4991739;28;19914;-75
2022/09/13 11:20:53;;;;;;;;;;;;;;;;;;4992746;28;19924;-75
2022/09/13 11:23:18;;;;;;;;;;;;;;;;;;4991501;28;19913;-75
2022/09/13 11:25:43;;;;;;;;;;;;;;;;;;4969489;28;19914;-74
2022/09/13 11:28:09;;;;;;;;;;;;;;;;;;4991599;28;20387;-75
2022/09/13 11:30:34;;;;;;;;;;;;;;;;;;4986208;28;19914;-75
2022/09/13 11:33:00;;;;;;;;;;;;;;;;;;4990387;28;20345;-74
2022/09/13 11:35:25;;;;;;;;;;;;;;;;;;4990417;28;20419;-75
2022/09/13 11:37:50;;;;;;;;;;;;;;;;;;4992457;28;19917;-80
2022/09/13 11:40:16;;;;;;;;;;;;;;;;;;4988931;28;19920;-74
2022/09/13 11:42:41;;;;;;;;;;;;;;;;;;4991995;28;19937;-74
2022/09/13 11:45:07;;;;;;;;;;;;;;;;;;4999347;28;19913;-89
2022/09/13 11:47:32;;;;;;;;;;;;;;;;;;4965817;28;19914;-87
2022/09/13 11:49:58;;;;;;;;;;;;;;;;;;4966173;28;20029;-85
2022/09/13 11:52:25;;;;;;;;;;;;;;;;;;4983454;28;20539;-87
2022/09/13 11:54:51;;;;;;;;;;;;;;;;;;4988702;28;19914;-88
2022/09/13 11:57:17;;;;;;;;;;;;;;;;;;4989247;28;20389;-84
2022/09/13 11:59:42;;;;;;;;;;;;;;;;;;5005655;28;19976;-85
2022/09/13 12:02:08;;;;;;;;;;;;;;;;;;4990572;28;19910;-86
2022/09/13 12:04:36;;;;;;;;;;;;;;;;;;4988231;28;19914;-83
2022/09/13 12:07:02;;;;;;;;;;;;;;;;;;4994665;28;20285;-81
2022/09/13 12:09:28;;;;;;;;;;;;;;;;;;4993002;28;19921;-76
2022/09/13 12:11:53;;;;;;;;;;;;;;;;;;4990118;28;19928;-74
2022/09/13 12:14:19;;;;;;;;;;;;;;;;;;4992420;28;20396;-81
2022/09/13 12:16:44;;;;;;;;;;;;;;;;;;4992861;28;19914;-85
2022/09/13 12:19:10;;;;;;;;;;;;;;;;;;4996543;28;19924;-85
2022/09/13 12:21:35;;;;;;;;;;;;;;;;;;4996030;28;20056;-84
2022/09/13 12:24:01;;;;;;;;;;;;;;;;;;4992660;28;19914;-83
2022/09/13 12:26:26;;;;;;;;;;;;;;;;;;4992255;28;19953;-81
2022/09/13 12:28:52;;;;;;;;;;;;;;;;;;4991457;28;19972;-84
2022/09/13 12:31:18;;;;;;;;;;;;;;;;;;4991313;28;20312;-80
2022/09/13 12:33:43;;;;;;;;;;;;;;;;;;4995040;28;19925;-80
2022/09/13 12:36:09;;;;;;;;;;;;;;;;;;4996722;28;19921;-83
2022/09/13 12:38:34;;;;;;;;;;;;;;;;;;4963419;28;19914;-82
2022/09/13 12:40:59;;;;;;;;;;;;;;;;;;4996821;28;20012;-82
2022/09/13 12:43:25;;;;;;;;;;;;;;;;;;4996815;28;20008;-81
2022/09/13 12:45:50;;;;;;;;;;;;;;;;;;4996668;28;19925;-82
2022/09/13 12:48:16;;;;;;;;;;;;;;;;;;4995714;28;20373;-80
2022/09/13 12:50:41;;;;;;;;;;;;;;;;;;4995760;28;19914;-81
2022/09/13 12:53:06;;;;;;;;;;;;;;;;;;4995555;28;19918;-81
2022/09/13 12:55:34;;;;;;;;;;;;;;;;;;5001145;28;19921;-84
2022/09/13 12:57:59;;;;;;;;;;;;;;;;;;4986259;28;20284;-86
2022/09/13 13:00:25;;;;;;;;;;;;;;;;;;5004689;28;19914;-86
2022/09/13 13:02:50;;;;;;;;;;;;;;;;;;4974060;28;19937;-86
2022/09/13 13:05:16;;;;;;;;;;;;;;;;;;4985816;28;19983;-87
2022/09/13 13:07:45;;;;;;;;;;;;;;;;;;4987776;28;19914;-86
2022/09/13 13:10:10;;;;;;;;;;;;;;;;;;4982984;28;19918;-85
2022/09/13 13:12:36;;;;;;;;;;;;;;;;;;4986014;28;19926;-84
2022/09/13 13:15:01;;;;;;;;;;;;;;;;;;4984497;28;19925;-87
2022/09/13 13:17:27;;;;;;;;;;;;;;;;;;4985608;28;20026;-88
2022/09/13 13:19:52;;;;;;;;;;;;;;;;;;4981680;28;20308;-83
2022/09/13 13:22:18;;;;;;;;;;;;;;;;;;4979940;28;20235;-83
2022/09/13 13:24:43;;;;;;;;;;;;;;;;;;5007072;28;19914;-83
2022/09/13 13:27:09;;;;;;;;;;;;;;;;;;4999338;28;19933;-84
2022/09/13 13:29:34;;;;;;;;;;;;;;;;;;5005819;23;19926;-80
2022/09/13 13:32:01;;;;;;;;;;;;;;;;;;4978282;28;20382;-81
2022/09/13 13:34:26;;;;;;;;;;;;;;;;;;4977820;28;19921;-80
2022/09/13 13:36:52;;;;;;;;;;;;;;;;;;4995218;28;19913;-81
2022/09/13 13:39:17;;;;;;;;;;;;;;;;;;4993957;28;19910;-80
2022/09/13 13:41:43;;;;;;;;;;;;;;;;;;4978064;28;19957;-78
2022/09/13 13:44:08;;;;;;;;;;;;;;;;;;4993243;28;19936;-80
2022/09/13 13:46:33;;;;;;;;;;;;;;;;;;4977939;28;19918;-81
2022/09/13 13:48:59;;;;;;;;;;;;;;;;;;4977911;28;20008;-80
2022/09/13 13:51:24;;;;;;;;;;;;;;;;;;4994009;28;19918;-79
2022/09/13 13:53:50;;;;;;;;;;;;;;;;;;4994580;28;20016;-79
2022/09/13 13:56:15;;;;;;;;;;;;;;;;;;4991065;28;20005;-80
2022/09/13 13:58:41;;;;;;;;;;;;;;;;;;4974751;28;19914;-81
2022/09/13 14:01:06;;;;;;;;;;;;;;;;;;4974915;28;20339;-80
2022/09/13 14:03:32;;;;;;;;;;;;;;;;;;4975537;28;20396;-80
2022/09/13 14:05:57;;;;;;;;;;;;;;;;;;4974838;28;19914;-79
2022/09/13 14:08:22;;;;;;;;;;;;;;;;;;4975084;28;20238;-79
2022/09/13 14:10:48;;;;;;;;;;;;;;;;;;4974223;28;19973;-80
2022/09/13 14:13:13;;;;;;;;;;;;;;;;;;4986184;28;19918;-79
2022/09/13 14:15:39;;;;;;;;;;;;;;;;;;4995392;28;20401;-79
2022/09/13 14:18:04;;;;;;;;;;;;;;;;;;4978235;28;19914;-80
2022/09/13 14:20:29;;;;;;;;;;;;;;;;;;4978413;28;19921;-80
2022/09/13 14:22:55;;;;;;;;;;;;;;;;;;5003305;28;19921;-80
2022/09/13 14:25:23;;;;;;;;;;;;;;;;;;5013318;28;19945;-80
2022/09/13 14:27:49;;;;;;;;;;;;;;;;;;5014594;28;19913;-82
2022/09/13 14:30:14;;;;;;;;;;;;;;;;;;5013545;28;19940;-80
2022/09/13 14:32:39;;;;;;;;;;;;;;;;;;5013757;28;19918;-79
2022/09/13 14:35:05;;;;;;;;;;;;;;;;;;5012276;28;19930;-81
2022/09/13 14:37:30;;;;;;;;;;;;;;;;;;4979135;28;19924;-82
2022/09/13 14:39:55;;;;;;;;;;;;;;;;;;5013371;28;19914;-81
2022/09/13 14:42:21;;;;;;;;;;;;;;;;;;5014873;28;19949;-80
2022/09/13 14:44:46;;;;;;;;;;;;;;;;;;4992192;28;19914;-80
2022/09/13 14:47:12;;;;;;;;;;;;;;;;;;4991445;28;19914;-80
2022/09/13 14:49:37;;;;;;;;;;;;;;;;;;5003619;28;19914;-81
2022/09/13 14:52:03;;;;;;;;;;;;;;;;;;4984865;28;19918;-79
2022/09/13 14:54:28;;;;;;;;;;;;;;;;;;4989792;28;20087;-80
2022/09/13 14:56:54;;;;;;;;;;;;;;;;;;4995335;28;19934;-80
2022/09/13 14:59:19;;;;;;;;;;;;;;;;;;4990527;28;19973;-80
2022/09/13 15:01:45;;;;;;;;;;;;;;;;;;5000810;28;19914;-80
2022/09/13 15:04:10;;;;;;;;;;;;;;;;;;4994366;28;19910;-80
2022/09/13 15:06:37;;;;;;;;;;;;;;;;;;4995438;28;19937;-82
2022/09/13 15:09:03;;;;;;;;;;;;;;;;;;4994760;28;19918;-82
2022/09/13 15:11:28;;;;;;;;;;;;;;;;;;4995050;28;20000;-82
2022/09/13 15:13:54;;;;;;;;;;;;;;;;;;4994876;28;19922;-82
2022/09/13 15:16:19;;;;;;;;;;;;;;;;;;4977589;28;19913;-82
2022/09/13 15:18:44;;;;;;;;;;;;;;;;;;4992546;28;20380;-82
2022/09/13 15:21:10;;;;;;;;;;;;;;;;;;4994442;28;20376;-81
2022/09/13 15:23:36;;;;;;;;;;;;;;;;;;4994091;28;20391;-82
2022/09/13 15:26:04;;;;;;;;;;;;;;;;;;4992734;28;19940;-82
2022/09/13 15:28:30;;;;;;;;;;;;;;;;;;4993832;28;20384;-82
2022/09/13 15:30:55;;;;;;;;;;;;;;;;;;4992738;28;20375;-82
2022/09/13 15:33:20;;;;;;;;;;;;;;;;;;4992506;28;19917;-82
2022/09/13 15:35:46;;;;;;;;;;;;;;;;;;4976776;28;19913;-82
2022/09/13 15:38:11;;;;;;;;;;;;;;;;;;4959941;28;20001;-80
2022/09/13 15:40:37;;;;;;;;;;;;;;;;;;4976890;28;19984;-80
2022/09/13 15:43:02;;;;;;;;;;;;;;;;;;4991912;28;19914;-80
2022/09/13 15:45:27;;;;;;;;;;;;;;;;;;4992205;28;19918;-81
2022/09/13 15:47:53;;;;;;;;;;;;;;;;;;4976175;28;20013;-79
2022/09/13 15:50:18;;;;;;;;;;;;;;;;;;4970857;28;19914;-79
2022/09/13 15:52:44;;;;;;;;;;;;;;;;;;4990986;28;19928;-78
2022/09/13 15:55:09;;;;;;;;;;;;;;;;;;4988243;28;19936;-79
2022/09/13 15:57:35;;;;;;;;;;;;;;;;;;4989368;28;20046;-79
2022/09/13 16:00:00;;;;;;;;;;;;;;;;;;4991589;28;20411;-79
2022/09/13 16:02:26;;;;;;;;;;;;;;;;;;4993166;28;19973;-78
2022/09/13 16:04:52;;;;;;;;;;;;;;;;;;5004254;28;19941;-79
2022/09/13 16:07:18;;;;;;;;;;;;;;;;;;4993555;28;20380;-79
2022/09/13 16:09:43;;;;;;;;;;;;;;;;;;4985864;28;20185;-78
2022/09/13 16:12:09;;;;;;;;;;;;;;;;;;4994741;28;19972;-83
2022/09/13 16:14:34;;;;;;;;;;;;;;;;;;4995385;28;20266;-77
2022/09/13 16:16:59;;;;;;;;;;;;;;;;;;4984474;28;19917;-78
2022/09/13 16:19:25;;;;;;;;;;;;;;;;;;5010720;28;19970;-77
2022/09/13 16:21:50;;;;;;;;;;;;;;;;;;5012911;28;19926;-77
2022/09/13 16:24:16;;;;;;;;;;;;;;;;;;5009641;28;19914;-78
2022/09/13 16:26:41;;;;;;;;;;;;;;;;;;5012751;28;19953;-81
2022/09/13 16:29:07;;;;;;;;;;;;;;;;;;5009038;28;19948;-77
2022/09/13 16:31:32;;;;;;;;;;;;;;;;;;5007340;28;19909;-77
2022/09/13 16:33:58;;;;;;;;;;;;;;;;;;5010103;28;19949;-77